<?xml version="1.0" encoding="UTF-8" standalone="no" ?>
<gpx xmlns="http://www.topografix.com/GPX/1/1" xmlns:xsi="http://www.w3.org/2001/XMLSchema-instance" xsi:schemaLocation="http://www.topografix.com/GPX/1/1 http://www.topografix.com/GPX/1/1/gpx.xsd" version="1.1" creator="VisuGPX - https://www.visugpx.com">
  <metadata>
    <name>St Julien TÃªte de la dame</name>
    <desc><![CDATA[Belle boucle qui part de la vallée de Quint dans le Diois pour atteindre la tête la dame dans le versons et retour.]]></desc>
  </metadata>
  <trk>
    <name><![CDATA[St Julien en Quint Pas de l Infernet 071214 N3 NAR]]></name>
    <trkseg>
      <trkpt lat="44.86031" lon="5.29834">
        <ele>641</ele>
        <time>2014-12-07T09:23:13Z</time>
      </trkpt>
      <trkpt lat="44.85998" lon="5.29821">
        <ele>631</ele>
        <time>2014-12-07T09:25:25Z</time>
      </trkpt>
      <trkpt lat="44.86009" lon="5.29764">
        <ele>618</ele>
        <time>2014-12-07T09:26:06Z</time>
      </trkpt>
      <trkpt lat="44.86036" lon="5.29702">
        <ele>630</ele>
        <time>2014-12-07T09:26:46Z</time>
      </trkpt>
      <trkpt lat="44.86055" lon="5.29644">
        <ele>639</ele>
        <time>2014-12-07T09:27:37Z</time>
      </trkpt>
      <trkpt lat="44.86051" lon="5.29582">
        <ele>645</ele>
        <time>2014-12-07T09:28:46Z</time>
      </trkpt>
      <trkpt lat="44.86069" lon="5.29529">
        <ele>645</ele>
        <time>2014-12-07T09:30:01Z</time>
      </trkpt>
      <trkpt lat="44.8611" lon="5.29467">
        <ele>645</ele>
        <time>2014-12-07T09:31:06Z</time>
      </trkpt>
      <trkpt lat="44.86072" lon="5.29445">
        <ele>651</ele>
        <time>2014-12-07T09:32:14Z</time>
      </trkpt>
      <trkpt lat="44.86024" lon="5.29452">
        <ele>656</ele>
        <time>2014-12-07T09:33:07Z</time>
      </trkpt>
      <trkpt lat="44.85977" lon="5.29457">
        <ele>671</ele>
        <time>2014-12-07T09:34:10Z</time>
      </trkpt>
      <trkpt lat="44.86008" lon="5.29404">
        <ele>682</ele>
        <time>2014-12-07T09:34:54Z</time>
      </trkpt>
      <trkpt lat="44.86043" lon="5.29359">
        <ele>687</ele>
        <time>2014-12-07T09:35:39Z</time>
      </trkpt>
      <trkpt lat="44.86075" lon="5.29315">
        <ele>694</ele>
        <time>2014-12-07T09:36:25Z</time>
      </trkpt>
      <trkpt lat="44.86106" lon="5.29269">
        <ele>699</ele>
        <time>2014-12-07T09:37:13Z</time>
      </trkpt>
      <trkpt lat="44.86124" lon="5.29212">
        <ele>705</ele>
        <time>2014-12-07T09:37:55Z</time>
      </trkpt>
      <trkpt lat="44.86136" lon="5.29152">
        <ele>714</ele>
        <time>2014-12-07T09:38:32Z</time>
      </trkpt>
      <trkpt lat="44.86145" lon="5.29095">
        <ele>715</ele>
        <time>2014-12-07T09:39:14Z</time>
      </trkpt>
      <trkpt lat="44.86154" lon="5.29037">
        <ele>723</ele>
        <time>2014-12-07T09:39:58Z</time>
      </trkpt>
      <trkpt lat="44.86102" lon="5.28997">
        <ele>724</ele>
        <time>2014-12-07T09:40:41Z</time>
      </trkpt>
      <trkpt lat="44.86115" lon="5.28943">
        <ele>724</ele>
        <time>2014-12-07T09:41:22Z</time>
      </trkpt>
      <trkpt lat="44.86147" lon="5.28904">
        <ele>727</ele>
        <time>2014-12-07T09:42:05Z</time>
      </trkpt>
      <trkpt lat="44.86139" lon="5.28852">
        <ele>734</ele>
        <time>2014-12-07T09:42:53Z</time>
      </trkpt>
      <trkpt lat="44.86105" lon="5.28812">
        <ele>745</ele>
        <time>2014-12-07T09:43:42Z</time>
      </trkpt>
      <trkpt lat="44.86084" lon="5.28759">
        <ele>755</ele>
        <time>2014-12-07T09:44:24Z</time>
      </trkpt>
      <trkpt lat="44.86074" lon="5.28697">
        <ele>760</ele>
        <time>2014-12-07T09:45:09Z</time>
      </trkpt>
      <trkpt lat="44.86105" lon="5.28702">
        <ele>766</ele>
        <time>2014-12-07T09:45:56Z</time>
      </trkpt>
      <trkpt lat="44.86134" lon="5.28707">
        <ele>766</ele>
        <time>2014-12-07T09:46:44Z</time>
      </trkpt>
      <trkpt lat="44.86174" lon="5.28657">
        <ele>766</ele>
        <time>2014-12-07T09:47:33Z</time>
      </trkpt>
      <trkpt lat="44.8619" lon="5.28598">
        <ele>766</ele>
        <time>2014-12-07T09:48:13Z</time>
      </trkpt>
      <trkpt lat="44.86203" lon="5.2854">
        <ele>767</ele>
        <time>2014-12-07T09:48:54Z</time>
      </trkpt>
      <trkpt lat="44.86236" lon="5.28541">
        <ele>766</ele>
        <time>2014-12-07T09:49:37Z</time>
      </trkpt>
      <trkpt lat="44.86228" lon="5.28519">
        <ele>773</ele>
        <time>2014-12-07T09:50:31Z</time>
      </trkpt>
      <trkpt lat="44.86194" lon="5.28489">
        <ele>780</ele>
        <time>2014-12-07T09:51:19Z</time>
      </trkpt>
      <trkpt lat="44.8616" lon="5.28543">
        <ele>786</ele>
        <time>2014-12-07T09:52:06Z</time>
      </trkpt>
      <trkpt lat="44.86117" lon="5.28571">
        <ele>790</ele>
        <time>2014-12-07T09:52:53Z</time>
      </trkpt>
      <trkpt lat="44.86082" lon="5.28536">
        <ele>793</ele>
        <time>2014-12-07T09:53:37Z</time>
      </trkpt>
      <trkpt lat="44.86079" lon="5.28475">
        <ele>791</ele>
        <time>2014-12-07T09:54:20Z</time>
      </trkpt>
      <trkpt lat="44.86045" lon="5.28471">
        <ele>796</ele>
        <time>2014-12-07T09:55:06Z</time>
      </trkpt>
      <trkpt lat="44.86013" lon="5.28521">
        <ele>804</ele>
        <time>2014-12-07T09:55:53Z</time>
      </trkpt>
      <trkpt lat="44.8599" lon="5.28578">
        <ele>812</ele>
        <time>2014-12-07T09:56:35Z</time>
      </trkpt>
      <trkpt lat="44.8596" lon="5.28627">
        <ele>813</ele>
        <time>2014-12-07T09:57:15Z</time>
      </trkpt>
      <trkpt lat="44.85928" lon="5.28674">
        <ele>815</ele>
        <time>2014-12-07T09:57:55Z</time>
      </trkpt>
      <trkpt lat="44.85897" lon="5.28717">
        <ele>818</ele>
        <time>2014-12-07T09:58:32Z</time>
      </trkpt>
      <trkpt lat="44.85863" lon="5.28675">
        <ele>815</ele>
        <time>2014-12-07T09:59:12Z</time>
      </trkpt>
      <trkpt lat="44.85831" lon="5.28629">
        <ele>814</ele>
        <time>2014-12-07T09:59:51Z</time>
      </trkpt>
      <trkpt lat="44.85805" lon="5.28577">
        <ele>814</ele>
        <time>2014-12-07T10:00:27Z</time>
      </trkpt>
      <trkpt lat="44.85765" lon="5.28589">
        <ele>811</ele>
        <time>2014-12-07T10:01:02Z</time>
      </trkpt>
      <trkpt lat="44.85726" lon="5.28629">
        <ele>810</ele>
        <time>2014-12-07T10:01:38Z</time>
      </trkpt>
      <trkpt lat="44.85691" lon="5.28668">
        <ele>812</ele>
        <time>2014-12-07T10:02:11Z</time>
      </trkpt>
      <trkpt lat="44.85648" lon="5.28695">
        <ele>812</ele>
        <time>2014-12-07T10:02:50Z</time>
      </trkpt>
      <trkpt lat="44.85651" lon="5.28656">
        <ele>822</ele>
        <time>2014-12-07T10:08:35Z</time>
      </trkpt>
      <trkpt lat="44.85685" lon="5.2861">
        <ele>830</ele>
        <time>2014-12-07T10:09:33Z</time>
      </trkpt>
      <trkpt lat="44.85724" lon="5.28566">
        <ele>843</ele>
        <time>2014-12-07T10:10:28Z</time>
      </trkpt>
      <trkpt lat="44.85761" lon="5.28517">
        <ele>848</ele>
        <time>2014-12-07T10:11:21Z</time>
      </trkpt>
      <trkpt lat="44.85801" lon="5.28469">
        <ele>856</ele>
        <time>2014-12-07T10:12:14Z</time>
      </trkpt>
      <trkpt lat="44.85841" lon="5.28447">
        <ele>861</ele>
        <time>2014-12-07T10:13:11Z</time>
      </trkpt>
      <trkpt lat="44.85888" lon="5.285">
        <ele>864</ele>
        <time>2014-12-07T10:14:11Z</time>
      </trkpt>
      <trkpt lat="44.85907" lon="5.28463">
        <ele>872</ele>
        <time>2014-12-07T10:15:12Z</time>
      </trkpt>
      <trkpt lat="44.85922" lon="5.28403">
        <ele>871</ele>
        <time>2014-12-07T10:15:57Z</time>
      </trkpt>
      <trkpt lat="44.85954" lon="5.28366">
        <ele>872</ele>
        <time>2014-12-07T10:16:31Z</time>
      </trkpt>
      <trkpt lat="44.85987" lon="5.28331">
        <ele>868</ele>
        <time>2014-12-07T10:17:02Z</time>
      </trkpt>
      <trkpt lat="44.85998" lon="5.28259">
        <ele>868</ele>
        <time>2014-12-07T10:17:54Z</time>
      </trkpt>
      <trkpt lat="44.86029" lon="5.28218">
        <ele>864</ele>
        <time>2014-12-07T10:18:39Z</time>
      </trkpt>
      <trkpt lat="44.86032" lon="5.28193">
        <ele>883</ele>
        <time>2014-12-07T10:19:36Z</time>
      </trkpt>
      <trkpt lat="44.86019" lon="5.28127">
        <ele>905</ele>
        <time>2014-12-07T10:20:39Z</time>
      </trkpt>
      <trkpt lat="44.86025" lon="5.28065">
        <ele>918</ele>
        <time>2014-12-07T10:21:49Z</time>
      </trkpt>
      <trkpt lat="44.86077" lon="5.28075">
        <ele>935</ele>
        <time>2014-12-07T10:23:12Z</time>
      </trkpt>
      <trkpt lat="44.86082" lon="5.28053">
        <ele>950</ele>
        <time>2014-12-07T10:24:35Z</time>
      </trkpt>
      <trkpt lat="44.86133" lon="5.28034">
        <ele>961</ele>
        <time>2014-12-07T10:25:52Z</time>
      </trkpt>
      <trkpt lat="44.86169" lon="5.27985">
        <ele>972</ele>
        <time>2014-12-07T10:26:59Z</time>
      </trkpt>
      <trkpt lat="44.8621" lon="5.27931">
        <ele>978</ele>
        <time>2014-12-07T10:28:25Z</time>
      </trkpt>
      <trkpt lat="44.86236" lon="5.27883">
        <ele>989</ele>
        <time>2014-12-07T10:29:26Z</time>
      </trkpt>
      <trkpt lat="44.86259" lon="5.27839">
        <ele>988</ele>
        <time>2014-12-07T10:30:11Z</time>
      </trkpt>
      <trkpt lat="44.86275" lon="5.27787">
        <ele>1004</ele>
        <time>2014-12-07T10:31:23Z</time>
      </trkpt>
      <trkpt lat="44.86328" lon="5.27802">
        <ele>1023</ele>
        <time>2014-12-07T10:32:27Z</time>
      </trkpt>
      <trkpt lat="44.86378" lon="5.27789">
        <ele>1032</ele>
        <time>2014-12-07T10:33:34Z</time>
      </trkpt>
      <trkpt lat="44.86433" lon="5.27799">
        <ele>1043</ele>
        <time>2014-12-07T10:35:05Z</time>
      </trkpt>
      <trkpt lat="44.86483" lon="5.27754">
        <ele>1060</ele>
        <time>2014-12-07T10:36:54Z</time>
      </trkpt>
      <trkpt lat="44.86531" lon="5.27787">
        <ele>1065</ele>
        <time>2014-12-07T10:38:03Z</time>
      </trkpt>
      <trkpt lat="44.86601" lon="5.27811">
        <ele>1083</ele>
        <time>2014-12-07T10:40:03Z</time>
      </trkpt>
      <trkpt lat="44.86655" lon="5.27844">
        <ele>1090</ele>
        <time>2014-12-07T10:44:15Z</time>
      </trkpt>
      <trkpt lat="44.86695" lon="5.27856">
        <ele>1093</ele>
        <time>2014-12-07T10:46:14Z</time>
      </trkpt>
      <trkpt lat="44.86708" lon="5.27815">
        <ele>1116</ele>
        <time>2014-12-07T10:48:32Z</time>
      </trkpt>
      <trkpt lat="44.86775" lon="5.27826">
        <ele>1124</ele>
        <time>2014-12-07T10:51:06Z</time>
      </trkpt>
      <trkpt lat="44.86828" lon="5.27831">
        <ele>1134</ele>
        <time>2014-12-07T10:52:39Z</time>
      </trkpt>
      <trkpt lat="44.86865" lon="5.27874">
        <ele>1148</ele>
        <time>2014-12-07T10:53:45Z</time>
      </trkpt>
      <trkpt lat="44.86878" lon="5.27847">
        <ele>1174</ele>
        <time>2014-12-07T10:55:37Z</time>
      </trkpt>
      <trkpt lat="44.86862" lon="5.27786">
        <ele>1187</ele>
        <time>2014-12-07T10:57:56Z</time>
      </trkpt>
      <trkpt lat="44.86851" lon="5.27742">
        <ele>1209</ele>
        <time>2014-12-07T10:59:55Z</time>
      </trkpt>
      <trkpt lat="44.869" lon="5.27744">
        <ele>1229</ele>
        <time>2014-12-07T11:02:01Z</time>
      </trkpt>
      <trkpt lat="44.86948" lon="5.27768">
        <ele>1246</ele>
        <time>2014-12-07T11:04:19Z</time>
      </trkpt>
      <trkpt lat="44.86971" lon="5.27804">
        <ele>1254</ele>
        <time>2014-12-07T11:05:34Z</time>
      </trkpt>
      <trkpt lat="44.86958" lon="5.27743">
        <ele>1268</ele>
        <time>2014-12-07T11:07:44Z</time>
      </trkpt>
      <trkpt lat="44.8693" lon="5.27692">
        <ele>1282</ele>
        <time>2014-12-07T11:08:53Z</time>
      </trkpt>
      <trkpt lat="44.86895" lon="5.2765">
        <ele>1293</ele>
        <time>2014-12-07T11:10:23Z</time>
      </trkpt>
      <trkpt lat="44.8686" lon="5.27604">
        <ele>1306</ele>
        <time>2014-12-07T11:11:58Z</time>
      </trkpt>
      <trkpt lat="44.86884" lon="5.27588">
        <ele>1324</ele>
        <time>2014-12-07T11:15:19Z</time>
      </trkpt>
      <trkpt lat="44.86893" lon="5.27565">
        <ele>1340</ele>
        <time>2014-12-07T11:17:13Z</time>
      </trkpt>
      <trkpt lat="44.86933" lon="5.27579">
        <ele>1357</ele>
        <time>2014-12-07T11:19:22Z</time>
      </trkpt>
      <trkpt lat="44.86985" lon="5.27598">
        <ele>1368</ele>
        <time>2014-12-07T11:21:07Z</time>
      </trkpt>
      <trkpt lat="44.87021" lon="5.27637">
        <ele>1367</ele>
        <time>2014-12-07T11:22:01Z</time>
      </trkpt>
      <trkpt lat="44.8706" lon="5.27664">
        <ele>1372</ele>
        <time>2014-12-07T11:23:25Z</time>
      </trkpt>
      <trkpt lat="44.87119" lon="5.27684">
        <ele>1373</ele>
        <time>2014-12-07T11:24:29Z</time>
      </trkpt>
      <trkpt lat="44.87173" lon="5.27719">
        <ele>1378</ele>
        <time>2014-12-07T11:26:02Z</time>
      </trkpt>
      <trkpt lat="44.87201" lon="5.27764">
        <ele>1378</ele>
        <time>2014-12-07T11:27:11Z</time>
      </trkpt>
      <trkpt lat="44.87221" lon="5.27808">
        <ele>1367</ele>
        <time>2014-12-07T11:28:32Z</time>
      </trkpt>
      <trkpt lat="44.87241" lon="5.27822">
        <ele>1369</ele>
        <time>2014-12-07T12:00:15Z</time>
      </trkpt>
      <trkpt lat="44.87204" lon="5.27786">
        <ele>1369</ele>
        <time>2014-12-07T12:01:06Z</time>
      </trkpt>
      <trkpt lat="44.87169" lon="5.27736">
        <ele>1383</ele>
        <time>2014-12-07T12:02:25Z</time>
      </trkpt>
      <trkpt lat="44.8715" lon="5.27673">
        <ele>1382</ele>
        <time>2014-12-07T12:03:35Z</time>
      </trkpt>
      <trkpt lat="44.87134" lon="5.27619">
        <ele>1388</ele>
        <time>2014-12-07T12:04:39Z</time>
      </trkpt>
      <trkpt lat="44.87143" lon="5.27594">
        <ele>1395</ele>
        <time>2014-12-07T12:05:58Z</time>
      </trkpt>
      <trkpt lat="44.87189" lon="5.27598">
        <ele>1395</ele>
        <time>2014-12-07T12:07:13Z</time>
      </trkpt>
      <trkpt lat="44.87225" lon="5.27609">
        <ele>1408</ele>
        <time>2014-12-07T12:08:26Z</time>
      </trkpt>
      <trkpt lat="44.87268" lon="5.27641">
        <ele>1410</ele>
        <time>2014-12-07T12:09:51Z</time>
      </trkpt>
      <trkpt lat="44.87306" lon="5.27669">
        <ele>1425</ele>
        <time>2014-12-07T12:12:14Z</time>
      </trkpt>
      <trkpt lat="44.8735" lon="5.27683">
        <ele>1429</ele>
        <time>2014-12-07T12:13:21Z</time>
      </trkpt>
      <trkpt lat="44.87389" lon="5.27702">
        <ele>1433</ele>
        <time>2014-12-07T12:14:13Z</time>
      </trkpt>
      <trkpt lat="44.87434" lon="5.27711">
        <ele>1436</ele>
        <time>2014-12-07T12:15:13Z</time>
      </trkpt>
      <trkpt lat="44.87477" lon="5.2773">
        <ele>1436</ele>
        <time>2014-12-07T12:16:10Z</time>
      </trkpt>
      <trkpt lat="44.87521" lon="5.27752">
        <ele>1436</ele>
        <time>2014-12-07T12:16:51Z</time>
      </trkpt>
      <trkpt lat="44.87561" lon="5.2778">
        <ele>1437</ele>
        <time>2014-12-07T12:17:36Z</time>
      </trkpt>
      <trkpt lat="44.87599" lon="5.27813">
        <ele>1434</ele>
        <time>2014-12-07T12:18:18Z</time>
      </trkpt>
      <trkpt lat="44.87639" lon="5.27844">
        <ele>1433</ele>
        <time>2014-12-07T12:19:08Z</time>
      </trkpt>
      <trkpt lat="44.87675" lon="5.27877">
        <ele>1432</ele>
        <time>2014-12-07T12:19:55Z</time>
      </trkpt>
      <trkpt lat="44.87714" lon="5.27911">
        <ele>1432</ele>
        <time>2014-12-07T12:20:46Z</time>
      </trkpt>
      <trkpt lat="44.8776" lon="5.2792">
        <ele>1434</ele>
        <time>2014-12-07T12:21:30Z</time>
      </trkpt>
      <trkpt lat="44.87806" lon="5.27935">
        <ele>1434</ele>
        <time>2014-12-07T12:22:18Z</time>
      </trkpt>
      <trkpt lat="44.87844" lon="5.27966">
        <ele>1435</ele>
        <time>2014-12-07T12:23:07Z</time>
      </trkpt>
      <trkpt lat="44.87878" lon="5.28005">
        <ele>1440</ele>
        <time>2014-12-07T12:23:57Z</time>
      </trkpt>
      <trkpt lat="44.8792" lon="5.2803">
        <ele>1442</ele>
        <time>2014-12-07T12:24:45Z</time>
      </trkpt>
      <trkpt lat="44.87962" lon="5.28058">
        <ele>1439</ele>
        <time>2014-12-07T12:25:28Z</time>
      </trkpt>
      <trkpt lat="44.88003" lon="5.28084">
        <ele>1437</ele>
        <time>2014-12-07T12:26:09Z</time>
      </trkpt>
      <trkpt lat="44.88043" lon="5.28111">
        <ele>1431</ele>
        <time>2014-12-07T12:26:53Z</time>
      </trkpt>
      <trkpt lat="44.8804" lon="5.28132">
        <ele>1423</ele>
        <time>2014-12-07T12:28:17Z</time>
      </trkpt>
      <trkpt lat="44.88076" lon="5.28138">
        <ele>1427</ele>
        <time>2014-12-07T12:29:47Z</time>
      </trkpt>
      <trkpt lat="44.88095" lon="5.28171">
        <ele>1423</ele>
        <time>2014-12-07T12:31:23Z</time>
      </trkpt>
      <trkpt lat="44.88116" lon="5.2819">
        <ele>1425</ele>
        <time>2014-12-07T12:43:53Z</time>
      </trkpt>
      <trkpt lat="44.88143" lon="5.28234">
        <ele>1426</ele>
        <time>2014-12-07T12:44:59Z</time>
      </trkpt>
      <trkpt lat="44.88173" lon="5.28266">
        <ele>1431</ele>
        <time>2014-12-07T12:45:59Z</time>
      </trkpt>
      <trkpt lat="44.88212" lon="5.28264">
        <ele>1433</ele>
        <time>2014-12-07T12:46:43Z</time>
      </trkpt>
      <trkpt lat="44.88254" lon="5.28235">
        <ele>1438</ele>
        <time>2014-12-07T12:47:38Z</time>
      </trkpt>
      <trkpt lat="44.883" lon="5.28219">
        <ele>1441</ele>
        <time>2014-12-07T12:48:34Z</time>
      </trkpt>
      <trkpt lat="44.88352" lon="5.28221">
        <ele>1445</ele>
        <time>2014-12-07T12:49:32Z</time>
      </trkpt>
      <trkpt lat="44.88394" lon="5.28249">
        <ele>1450</ele>
        <time>2014-12-07T12:50:25Z</time>
      </trkpt>
      <trkpt lat="44.88433" lon="5.28279">
        <ele>1449</ele>
        <time>2014-12-07T12:51:19Z</time>
      </trkpt>
      <trkpt lat="44.88475" lon="5.28313">
        <ele>1440</ele>
        <time>2014-12-07T12:52:11Z</time>
      </trkpt>
      <trkpt lat="44.88509" lon="5.28349">
        <ele>1445</ele>
        <time>2014-12-07T12:52:59Z</time>
      </trkpt>
      <trkpt lat="44.88559" lon="5.28379">
        <ele>1445</ele>
        <time>2014-12-07T12:54:02Z</time>
      </trkpt>
      <trkpt lat="44.88587" lon="5.28429">
        <ele>1450</ele>
        <time>2014-12-07T12:54:52Z</time>
      </trkpt>
      <trkpt lat="44.88626" lon="5.28456">
        <ele>1460</ele>
        <time>2014-12-07T12:55:53Z</time>
      </trkpt>
      <trkpt lat="44.88661" lon="5.28499">
        <ele>1463</ele>
        <time>2014-12-07T12:56:46Z</time>
      </trkpt>
      <trkpt lat="44.88693" lon="5.28546">
        <ele>1465</ele>
        <time>2014-12-07T12:57:56Z</time>
      </trkpt>
      <trkpt lat="44.88729" lon="5.28597">
        <ele>1468</ele>
        <time>2014-12-07T12:58:50Z</time>
      </trkpt>
      <trkpt lat="44.88759" lon="5.28644">
        <ele>1465</ele>
        <time>2014-12-07T12:59:47Z</time>
      </trkpt>
      <trkpt lat="44.88797" lon="5.28692">
        <ele>1464</ele>
        <time>2014-12-07T13:00:47Z</time>
      </trkpt>
      <trkpt lat="44.88841" lon="5.28741">
        <ele>1467</ele>
        <time>2014-12-07T13:02:27Z</time>
      </trkpt>
      <trkpt lat="44.88874" lon="5.28786">
        <ele>1473</ele>
        <time>2014-12-07T13:03:21Z</time>
      </trkpt>
      <trkpt lat="44.88907" lon="5.28832">
        <ele>1475</ele>
        <time>2014-12-07T13:04:07Z</time>
      </trkpt>
      <trkpt lat="44.8894" lon="5.28874">
        <ele>1474</ele>
        <time>2014-12-07T13:04:51Z</time>
      </trkpt>
      <trkpt lat="44.88975" lon="5.28901">
        <ele>1462</ele>
        <time>2014-12-07T13:05:34Z</time>
      </trkpt>
      <trkpt lat="44.89004" lon="5.28946">
        <ele>1453</ele>
        <time>2014-12-07T13:06:16Z</time>
      </trkpt>
      <trkpt lat="44.89051" lon="5.28969">
        <ele>1451</ele>
        <time>2014-12-07T13:07:01Z</time>
      </trkpt>
      <trkpt lat="44.89098" lon="5.28985">
        <ele>1454</ele>
        <time>2014-12-07T13:07:47Z</time>
      </trkpt>
      <trkpt lat="44.89141" lon="5.29002">
        <ele>1461</ele>
        <time>2014-12-07T13:08:41Z</time>
      </trkpt>
      <trkpt lat="44.89185" lon="5.29013">
        <ele>1462</ele>
        <time>2014-12-07T13:09:27Z</time>
      </trkpt>
      <trkpt lat="44.89226" lon="5.29041">
        <ele>1462</ele>
        <time>2014-12-07T13:10:14Z</time>
      </trkpt>
      <trkpt lat="44.89253" lon="5.29089">
        <ele>1464</ele>
        <time>2014-12-07T13:11:01Z</time>
      </trkpt>
      <trkpt lat="44.89291" lon="5.29126">
        <ele>1462</ele>
        <time>2014-12-07T13:11:41Z</time>
      </trkpt>
      <trkpt lat="44.8933" lon="5.29159">
        <ele>1459</ele>
        <time>2014-12-07T13:12:20Z</time>
      </trkpt>
      <trkpt lat="44.89369" lon="5.29195">
        <ele>1457</ele>
        <time>2014-12-07T13:12:58Z</time>
      </trkpt>
      <trkpt lat="44.89407" lon="5.29218">
        <ele>1453</ele>
        <time>2014-12-07T13:13:50Z</time>
      </trkpt>
      <trkpt lat="44.89421" lon="5.29271">
        <ele>1455</ele>
        <time>2014-12-07T13:15:20Z</time>
      </trkpt>
      <trkpt lat="44.89449" lon="5.29322">
        <ele>1465</ele>
        <time>2014-12-07T13:16:17Z</time>
      </trkpt>
      <trkpt lat="44.89487" lon="5.29344">
        <ele>1479</ele>
        <time>2014-12-07T13:17:33Z</time>
      </trkpt>
      <trkpt lat="44.8953" lon="5.29347">
        <ele>1485</ele>
        <time>2014-12-07T13:18:39Z</time>
      </trkpt>
      <trkpt lat="44.89573" lon="5.29354">
        <ele>1493</ele>
        <time>2014-12-07T13:20:24Z</time>
      </trkpt>
      <trkpt lat="44.89617" lon="5.29349">
        <ele>1498</ele>
        <time>2014-12-07T13:21:12Z</time>
      </trkpt>
      <trkpt lat="44.89659" lon="5.29366">
        <ele>1508</ele>
        <time>2014-12-07T13:22:06Z</time>
      </trkpt>
      <trkpt lat="44.89698" lon="5.294">
        <ele>1526</ele>
        <time>2014-12-07T13:23:38Z</time>
      </trkpt>
      <trkpt lat="44.89743" lon="5.29413">
        <ele>1539</ele>
        <time>2014-12-07T13:24:59Z</time>
      </trkpt>
      <trkpt lat="44.89783" lon="5.29421">
        <ele>1544</ele>
        <time>2014-12-07T13:26:08Z</time>
      </trkpt>
      <trkpt lat="44.89825" lon="5.29438">
        <ele>1548</ele>
        <time>2014-12-07T13:27:17Z</time>
      </trkpt>
      <trkpt lat="44.89871" lon="5.29454">
        <ele>1554</ele>
        <time>2014-12-07T13:28:18Z</time>
      </trkpt>
      <trkpt lat="44.89906" lon="5.2948">
        <ele>1557</ele>
        <time>2014-12-07T13:30:42Z</time>
      </trkpt>
      <trkpt lat="44.89945" lon="5.29516">
        <ele>1563</ele>
        <time>2014-12-07T13:31:44Z</time>
      </trkpt>
      <trkpt lat="44.8994" lon="5.29539">
        <ele>1570</ele>
        <time>2014-12-07T13:32:58Z</time>
      </trkpt>
      <trkpt lat="44.8998" lon="5.29576">
        <ele>1575</ele>
        <time>2014-12-07T13:33:52Z</time>
      </trkpt>
      <trkpt lat="44.90016" lon="5.29612">
        <ele>1579</ele>
        <time>2014-12-07T13:34:44Z</time>
      </trkpt>
      <trkpt lat="44.90049" lon="5.29653">
        <ele>1583</ele>
        <time>2014-12-07T13:35:36Z</time>
      </trkpt>
      <trkpt lat="44.90078" lon="5.297">
        <ele>1588</ele>
        <time>2014-12-07T13:36:35Z</time>
      </trkpt>
      <trkpt lat="44.90108" lon="5.29743">
        <ele>1594</ele>
        <time>2014-12-07T13:37:30Z</time>
      </trkpt>
      <trkpt lat="44.90141" lon="5.29786">
        <ele>1601</ele>
        <time>2014-12-07T13:38:24Z</time>
      </trkpt>
      <trkpt lat="44.90173" lon="5.2983">
        <ele>1606</ele>
        <time>2014-12-07T13:39:12Z</time>
      </trkpt>
      <trkpt lat="44.90208" lon="5.29869">
        <ele>1608</ele>
        <time>2014-12-07T13:40:24Z</time>
      </trkpt>
      <trkpt lat="44.90236" lon="5.2992">
        <ele>1620</ele>
        <time>2014-12-07T13:41:27Z</time>
      </trkpt>
      <trkpt lat="44.90269" lon="5.29964">
        <ele>1622</ele>
        <time>2014-12-07T13:42:14Z</time>
      </trkpt>
      <trkpt lat="44.90307" lon="5.29995">
        <ele>1626</ele>
        <time>2014-12-07T13:43:13Z</time>
      </trkpt>
      <trkpt lat="44.90337" lon="5.30033">
        <ele>1636</ele>
        <time>2014-12-07T13:44:20Z</time>
      </trkpt>
      <trkpt lat="44.9038" lon="5.30053">
        <ele>1647</ele>
        <time>2014-12-07T13:45:26Z</time>
      </trkpt>
      <trkpt lat="44.90425" lon="5.30062">
        <ele>1653</ele>
        <time>2014-12-07T13:46:20Z</time>
      </trkpt>
      <trkpt lat="44.90468" lon="5.30079">
        <ele>1657</ele>
        <time>2014-12-07T13:47:20Z</time>
      </trkpt>
      <trkpt lat="44.90511" lon="5.3011">
        <ele>1659</ele>
        <time>2014-12-07T13:48:16Z</time>
      </trkpt>
      <trkpt lat="44.90552" lon="5.30138">
        <ele>1662</ele>
        <time>2014-12-07T13:49:09Z</time>
      </trkpt>
      <trkpt lat="44.9057" lon="5.30166">
        <ele>1663</ele>
        <time>2014-12-07T13:54:05Z</time>
      </trkpt>
      <trkpt lat="44.90574" lon="5.30226">
        <ele>1660</ele>
        <time>2014-12-07T13:55:06Z</time>
      </trkpt>
      <trkpt lat="44.90562" lon="5.3029">
        <ele>1656</ele>
        <time>2014-12-07T13:55:46Z</time>
      </trkpt>
      <trkpt lat="44.90529" lon="5.3033">
        <ele>1654</ele>
        <time>2014-12-07T13:56:23Z</time>
      </trkpt>
      <trkpt lat="44.90489" lon="5.30355">
        <ele>1650</ele>
        <time>2014-12-07T13:57:00Z</time>
      </trkpt>
      <trkpt lat="44.90447" lon="5.30376">
        <ele>1645</ele>
        <time>2014-12-07T13:57:35Z</time>
      </trkpt>
      <trkpt lat="44.90401" lon="5.30378">
        <ele>1640</ele>
        <time>2014-12-07T13:58:12Z</time>
      </trkpt>
      <trkpt lat="44.90368" lon="5.30422">
        <ele>1635</ele>
        <time>2014-12-07T13:58:47Z</time>
      </trkpt>
      <trkpt lat="44.90344" lon="5.30476">
        <ele>1635</ele>
        <time>2014-12-07T13:59:41Z</time>
      </trkpt>
      <trkpt lat="44.90332" lon="5.3053">
        <ele>1629</ele>
        <time>2014-12-07T14:00:25Z</time>
      </trkpt>
      <trkpt lat="44.90307" lon="5.30581">
        <ele>1625</ele>
        <time>2014-12-07T14:01:01Z</time>
      </trkpt>
      <trkpt lat="44.90284" lon="5.30635">
        <ele>1623</ele>
        <time>2014-12-07T14:01:38Z</time>
      </trkpt>
      <trkpt lat="44.90266" lon="5.30692">
        <ele>1622</ele>
        <time>2014-12-07T14:02:16Z</time>
      </trkpt>
      <trkpt lat="44.90239" lon="5.30743">
        <ele>1623</ele>
        <time>2014-12-07T14:02:54Z</time>
      </trkpt>
      <trkpt lat="44.90202" lon="5.30775">
        <ele>1624</ele>
        <time>2014-12-07T14:03:34Z</time>
      </trkpt>
      <trkpt lat="44.90161" lon="5.30797">
        <ele>1627</ele>
        <time>2014-12-07T14:04:20Z</time>
      </trkpt>
      <trkpt lat="44.90125" lon="5.30838">
        <ele>1627</ele>
        <time>2014-12-07T14:05:03Z</time>
      </trkpt>
      <trkpt lat="44.90101" lon="5.30888">
        <ele>1616</ele>
        <time>2014-12-07T14:05:46Z</time>
      </trkpt>
      <trkpt lat="44.90084" lon="5.30943">
        <ele>1606</ele>
        <time>2014-12-07T14:06:27Z</time>
      </trkpt>
      <trkpt lat="44.90092" lon="5.30998">
        <ele>1598</ele>
        <time>2014-12-07T14:07:07Z</time>
      </trkpt>
      <trkpt lat="44.90057" lon="5.31034">
        <ele>1588</ele>
        <time>2014-12-07T14:07:41Z</time>
      </trkpt>
      <trkpt lat="44.90037" lon="5.31093">
        <ele>1581</ele>
        <time>2014-12-07T14:08:18Z</time>
      </trkpt>
      <trkpt lat="44.90025" lon="5.3115">
        <ele>1579</ele>
        <time>2014-12-07T14:09:10Z</time>
      </trkpt>
      <trkpt lat="44.90009" lon="5.3121">
        <ele>1572</ele>
        <time>2014-12-07T14:09:45Z</time>
      </trkpt>
      <trkpt lat="44.89998" lon="5.31267">
        <ele>1569</ele>
        <time>2014-12-07T14:10:19Z</time>
      </trkpt>
      <trkpt lat="44.89989" lon="5.3133">
        <ele>1565</ele>
        <time>2014-12-07T14:10:54Z</time>
      </trkpt>
      <trkpt lat="44.89998" lon="5.31392">
        <ele>1558</ele>
        <time>2014-12-07T14:11:30Z</time>
      </trkpt>
      <trkpt lat="44.8997" lon="5.31421">
        <ele>1561</ele>
        <time>2014-12-07T14:13:16Z</time>
      </trkpt>
      <trkpt lat="44.89941" lon="5.31469">
        <ele>1555</ele>
        <time>2014-12-07T14:13:55Z</time>
      </trkpt>
      <trkpt lat="44.89925" lon="5.31528">
        <ele>1548</ele>
        <time>2014-12-07T14:14:29Z</time>
      </trkpt>
      <trkpt lat="44.89896" lon="5.31574">
        <ele>1544</ele>
        <time>2014-12-07T14:15:04Z</time>
      </trkpt>
      <trkpt lat="44.89869" lon="5.31626">
        <ele>1542</ele>
        <time>2014-12-07T14:15:42Z</time>
      </trkpt>
      <trkpt lat="44.89836" lon="5.31666">
        <ele>1541</ele>
        <time>2014-12-07T14:16:22Z</time>
      </trkpt>
      <trkpt lat="44.89793" lon="5.31679">
        <ele>1532</ele>
        <time>2014-12-07T14:17:04Z</time>
      </trkpt>
      <trkpt lat="44.8975" lon="5.31659">
        <ele>1533</ele>
        <time>2014-12-07T14:17:59Z</time>
      </trkpt>
      <trkpt lat="44.89711" lon="5.31689">
        <ele>1528</ele>
        <time>2014-12-07T14:18:40Z</time>
      </trkpt>
      <trkpt lat="44.89669" lon="5.31706">
        <ele>1526</ele>
        <time>2014-12-07T14:19:19Z</time>
      </trkpt>
      <trkpt lat="44.89623" lon="5.31706">
        <ele>1527</ele>
        <time>2014-12-07T14:20:01Z</time>
      </trkpt>
      <trkpt lat="44.89579" lon="5.317">
        <ele>1530</ele>
        <time>2014-12-07T14:20:42Z</time>
      </trkpt>
      <trkpt lat="44.89535" lon="5.31678">
        <ele>1532</ele>
        <time>2014-12-07T14:21:25Z</time>
      </trkpt>
      <trkpt lat="44.895" lon="5.31684">
        <ele>1528</ele>
        <time>2014-12-07T14:22:08Z</time>
      </trkpt>
      <trkpt lat="44.89463" lon="5.31717">
        <ele>1523</ele>
        <time>2014-12-07T14:22:50Z</time>
      </trkpt>
      <trkpt lat="44.89427" lon="5.31751">
        <ele>1516</ele>
        <time>2014-12-07T14:23:29Z</time>
      </trkpt>
      <trkpt lat="44.89395" lon="5.31798">
        <ele>1508</ele>
        <time>2014-12-07T14:24:08Z</time>
      </trkpt>
      <trkpt lat="44.89363" lon="5.31842">
        <ele>1502</ele>
        <time>2014-12-07T14:24:46Z</time>
      </trkpt>
      <trkpt lat="44.89335" lon="5.31891">
        <ele>1495</ele>
        <time>2014-12-07T14:25:23Z</time>
      </trkpt>
      <trkpt lat="44.89307" lon="5.3194">
        <ele>1494</ele>
        <time>2014-12-07T14:26:02Z</time>
      </trkpt>
      <trkpt lat="44.89279" lon="5.31944">
        <ele>1497</ele>
        <time>2014-12-07T14:27:16Z</time>
      </trkpt>
      <trkpt lat="44.89234" lon="5.31937">
        <ele>1496</ele>
        <time>2014-12-07T14:27:57Z</time>
      </trkpt>
      <trkpt lat="44.8919" lon="5.31939">
        <ele>1493</ele>
        <time>2014-12-07T14:28:41Z</time>
      </trkpt>
      <trkpt lat="44.89153" lon="5.31929">
        <ele>1492</ele>
        <time>2014-12-07T14:29:41Z</time>
      </trkpt>
      <trkpt lat="44.8913" lon="5.31905">
        <ele>1475</ele>
        <time>2014-12-07T14:30:57Z</time>
      </trkpt>
      <trkpt lat="44.8914" lon="5.31836">
        <ele>1473</ele>
        <time>2014-12-07T14:32:05Z</time>
      </trkpt>
      <trkpt lat="44.8915" lon="5.31754">
        <ele>1478</ele>
        <time>2014-12-07T14:33:04Z</time>
      </trkpt>
      <trkpt lat="44.89186" lon="5.31693">
        <ele>1464</ele>
        <time>2014-12-07T14:34:00Z</time>
      </trkpt>
      <trkpt lat="44.8922" lon="5.3163">
        <ele>1452</ele>
        <time>2014-12-07T14:34:56Z</time>
      </trkpt>
      <trkpt lat="44.89223" lon="5.31566">
        <ele>1443</ele>
        <time>2014-12-07T14:36:03Z</time>
      </trkpt>
      <trkpt lat="44.8924" lon="5.31511">
        <ele>1437</ele>
        <time>2014-12-07T14:36:58Z</time>
      </trkpt>
      <trkpt lat="44.89236" lon="5.31452">
        <ele>1418</ele>
        <time>2014-12-07T14:38:34Z</time>
      </trkpt>
      <trkpt lat="44.8923" lon="5.3138">
        <ele>1424</ele>
        <time>2014-12-07T14:42:11Z</time>
      </trkpt>
      <trkpt lat="44.89226" lon="5.3131">
        <ele>1412</ele>
        <time>2014-12-07T14:43:24Z</time>
      </trkpt>
      <trkpt lat="44.89215" lon="5.31251">
        <ele>1413</ele>
        <time>2014-12-07T14:48:31Z</time>
      </trkpt>
      <trkpt lat="44.89222" lon="5.31187">
        <ele>1409</ele>
        <time>2014-12-07T14:49:44Z</time>
      </trkpt>
      <trkpt lat="44.89233" lon="5.31126">
        <ele>1405</ele>
        <time>2014-12-07T14:50:32Z</time>
      </trkpt>
      <trkpt lat="44.89249" lon="5.31069">
        <ele>1396</ele>
        <time>2014-12-07T14:51:22Z</time>
      </trkpt>
      <trkpt lat="44.89265" lon="5.31006">
        <ele>1390</ele>
        <time>2014-12-07T14:52:21Z</time>
      </trkpt>
      <trkpt lat="44.89281" lon="5.30947">
        <ele>1383</ele>
        <time>2014-12-07T14:53:12Z</time>
      </trkpt>
      <trkpt lat="44.89307" lon="5.30895">
        <ele>1377</ele>
        <time>2014-12-07T14:54:00Z</time>
      </trkpt>
      <trkpt lat="44.89331" lon="5.30845">
        <ele>1372</ele>
        <time>2014-12-07T14:54:58Z</time>
      </trkpt>
      <trkpt lat="44.89361" lon="5.30796">
        <ele>1365</ele>
        <time>2014-12-07T14:55:59Z</time>
      </trkpt>
      <trkpt lat="44.89386" lon="5.30744">
        <ele>1358</ele>
        <time>2014-12-07T14:56:57Z</time>
      </trkpt>
      <trkpt lat="44.89417" lon="5.30695">
        <ele>1349</ele>
        <time>2014-12-07T14:57:30Z</time>
      </trkpt>
      <trkpt lat="44.89449" lon="5.30651">
        <ele>1340</ele>
        <time>2014-12-07T14:58:04Z</time>
      </trkpt>
      <trkpt lat="44.89452" lon="5.30631">
        <ele>1334</ele>
        <time>2014-12-07T14:59:05Z</time>
      </trkpt>
      <trkpt lat="44.89411" lon="5.30651">
        <ele>1328</ele>
        <time>2014-12-07T14:59:42Z</time>
      </trkpt>
      <trkpt lat="44.89366" lon="5.30678">
        <ele>1323</ele>
        <time>2014-12-07T15:00:15Z</time>
      </trkpt>
      <trkpt lat="44.89323" lon="5.30707">
        <ele>1320</ele>
        <time>2014-12-07T15:00:47Z</time>
      </trkpt>
      <trkpt lat="44.89287" lon="5.30753">
        <ele>1315</ele>
        <time>2014-12-07T15:01:23Z</time>
      </trkpt>
      <trkpt lat="44.89245" lon="5.30791">
        <ele>1309</ele>
        <time>2014-12-07T15:02:29Z</time>
      </trkpt>
      <trkpt lat="44.89204" lon="5.30819">
        <ele>1305</ele>
        <time>2014-12-07T15:03:08Z</time>
      </trkpt>
      <trkpt lat="44.89162" lon="5.30849">
        <ele>1302</ele>
        <time>2014-12-07T15:03:43Z</time>
      </trkpt>
      <trkpt lat="44.8914" lon="5.30872">
        <ele>1295</ele>
        <time>2014-12-07T15:04:19Z</time>
      </trkpt>
      <trkpt lat="44.89162" lon="5.30812">
        <ele>1287</ele>
        <time>2014-12-07T15:04:53Z</time>
      </trkpt>
      <trkpt lat="44.89197" lon="5.30769">
        <ele>1277</ele>
        <time>2014-12-07T15:05:30Z</time>
      </trkpt>
      <trkpt lat="44.89224" lon="5.30713">
        <ele>1271</ele>
        <time>2014-12-07T15:06:06Z</time>
      </trkpt>
      <trkpt lat="44.8925" lon="5.30659">
        <ele>1267</ele>
        <time>2014-12-07T15:06:43Z</time>
      </trkpt>
      <trkpt lat="44.89274" lon="5.30604">
        <ele>1260</ele>
        <time>2014-12-07T15:07:17Z</time>
      </trkpt>
      <trkpt lat="44.89307" lon="5.30562">
        <ele>1256</ele>
        <time>2014-12-07T15:07:53Z</time>
      </trkpt>
      <trkpt lat="44.89339" lon="5.30518">
        <ele>1250</ele>
        <time>2014-12-07T15:08:40Z</time>
      </trkpt>
      <trkpt lat="44.89374" lon="5.30475">
        <ele>1245</ele>
        <time>2014-12-07T15:09:35Z</time>
      </trkpt>
      <trkpt lat="44.8939" lon="5.30445">
        <ele>1239</ele>
        <time>2014-12-07T15:10:11Z</time>
      </trkpt>
      <trkpt lat="44.89346" lon="5.30464">
        <ele>1235</ele>
        <time>2014-12-07T15:10:45Z</time>
      </trkpt>
      <trkpt lat="44.89302" lon="5.30488">
        <ele>1229</ele>
        <time>2014-12-07T15:11:21Z</time>
      </trkpt>
      <trkpt lat="44.89259" lon="5.30503">
        <ele>1225</ele>
        <time>2014-12-07T15:11:54Z</time>
      </trkpt>
      <trkpt lat="44.89218" lon="5.30539">
        <ele>1214</ele>
        <time>2014-12-07T15:12:29Z</time>
      </trkpt>
      <trkpt lat="44.89178" lon="5.30571">
        <ele>1207</ele>
        <time>2014-12-07T15:13:04Z</time>
      </trkpt>
      <trkpt lat="44.89142" lon="5.30609">
        <ele>1202</ele>
        <time>2014-12-07T15:13:37Z</time>
      </trkpt>
      <trkpt lat="44.89103" lon="5.30632">
        <ele>1195</ele>
        <time>2014-12-07T15:14:13Z</time>
      </trkpt>
      <trkpt lat="44.89062" lon="5.30657">
        <ele>1187</ele>
        <time>2014-12-07T15:14:48Z</time>
      </trkpt>
      <trkpt lat="44.89024" lon="5.30693">
        <ele>1178</ele>
        <time>2014-12-07T15:15:24Z</time>
      </trkpt>
      <trkpt lat="44.88994" lon="5.30742">
        <ele>1174</ele>
        <time>2014-12-07T15:15:58Z</time>
      </trkpt>
      <trkpt lat="44.88987" lon="5.30722">
        <ele>1173</ele>
        <time>2014-12-07T15:16:42Z</time>
      </trkpt>
      <trkpt lat="44.88991" lon="5.30668">
        <ele>1165</ele>
        <time>2014-12-07T15:17:47Z</time>
      </trkpt>
      <trkpt lat="44.89009" lon="5.30607">
        <ele>1154</ele>
        <time>2014-12-07T15:18:21Z</time>
      </trkpt>
      <trkpt lat="44.88997" lon="5.30582">
        <ele>1142</ele>
        <time>2014-12-07T15:19:14Z</time>
      </trkpt>
      <trkpt lat="44.88947" lon="5.30587">
        <ele>1134</ele>
        <time>2014-12-07T15:23:52Z</time>
      </trkpt>
      <trkpt lat="44.88909" lon="5.30579">
        <ele>1116</ele>
        <time>2014-12-07T15:24:33Z</time>
      </trkpt>
      <trkpt lat="44.88869" lon="5.30559">
        <ele>1107</ele>
        <time>2014-12-07T15:25:17Z</time>
      </trkpt>
      <trkpt lat="44.88828" lon="5.30546">
        <ele>1092</ele>
        <time>2014-12-07T15:25:54Z</time>
      </trkpt>
      <trkpt lat="44.88792" lon="5.30506">
        <ele>1072</ele>
        <time>2014-12-07T15:26:30Z</time>
      </trkpt>
      <trkpt lat="44.88753" lon="5.30463">
        <ele>1066</ele>
        <time>2014-12-07T15:27:09Z</time>
      </trkpt>
      <trkpt lat="44.88706" lon="5.30439">
        <ele>1060</ele>
        <time>2014-12-07T15:30:05Z</time>
      </trkpt>
      <trkpt lat="44.88657" lon="5.3041">
        <ele>1044</ele>
        <time>2014-12-07T15:30:46Z</time>
      </trkpt>
      <trkpt lat="44.88606" lon="5.30391">
        <ele>1025</ele>
        <time>2014-12-07T15:31:26Z</time>
      </trkpt>
      <trkpt lat="44.88553" lon="5.3037">
        <ele>1011</ele>
        <time>2014-12-07T15:32:10Z</time>
      </trkpt>
      <trkpt lat="44.88499" lon="5.3035">
        <ele>1001</ele>
        <time>2014-12-07T15:32:53Z</time>
      </trkpt>
      <trkpt lat="44.8845" lon="5.30333">
        <ele>1001</ele>
        <time>2014-12-07T15:33:30Z</time>
      </trkpt>
      <trkpt lat="44.88406" lon="5.30318">
        <ele>990</ele>
        <time>2014-12-07T15:34:05Z</time>
      </trkpt>
      <trkpt lat="44.88357" lon="5.30299">
        <ele>981</ele>
        <time>2014-12-07T15:34:40Z</time>
      </trkpt>
      <trkpt lat="44.8831" lon="5.30292">
        <ele>971</ele>
        <time>2014-12-07T15:35:18Z</time>
      </trkpt>
      <trkpt lat="44.88259" lon="5.30284">
        <ele>953</ele>
        <time>2014-12-07T15:36:05Z</time>
      </trkpt>
      <trkpt lat="44.88215" lon="5.30289">
        <ele>942</ele>
        <time>2014-12-07T15:36:51Z</time>
      </trkpt>
      <trkpt lat="44.88168" lon="5.30283">
        <ele>934</ele>
        <time>2014-12-07T15:37:28Z</time>
      </trkpt>
      <trkpt lat="44.88105" lon="5.30271">
        <ele>922</ele>
        <time>2014-12-07T15:38:17Z</time>
      </trkpt>
      <trkpt lat="44.88054" lon="5.30295">
        <ele>909</ele>
        <time>2014-12-07T15:39:00Z</time>
      </trkpt>
      <trkpt lat="44.88007" lon="5.30262">
        <ele>899</ele>
        <time>2014-12-07T15:39:35Z</time>
      </trkpt>
      <trkpt lat="44.87957" lon="5.30246">
        <ele>897</ele>
        <time>2014-12-07T15:40:13Z</time>
      </trkpt>
      <trkpt lat="44.87906" lon="5.30245">
        <ele>890</ele>
        <time>2014-12-07T15:40:50Z</time>
      </trkpt>
      <trkpt lat="44.87857" lon="5.30244">
        <ele>887</ele>
        <time>2014-12-07T15:41:25Z</time>
      </trkpt>
      <trkpt lat="44.8781" lon="5.30241">
        <ele>884</ele>
        <time>2014-12-07T15:42:01Z</time>
      </trkpt>
      <trkpt lat="44.87761" lon="5.30232">
        <ele>881</ele>
        <time>2014-12-07T15:42:33Z</time>
      </trkpt>
      <trkpt lat="44.87715" lon="5.30228">
        <ele>879</ele>
        <time>2014-12-07T15:43:07Z</time>
      </trkpt>
      <trkpt lat="44.87671" lon="5.30215">
        <ele>874</ele>
        <time>2014-12-07T15:43:40Z</time>
      </trkpt>
      <trkpt lat="44.87623" lon="5.30203">
        <ele>863</ele>
        <time>2014-12-07T15:44:16Z</time>
      </trkpt>
      <trkpt lat="44.87578" lon="5.3019">
        <ele>857</ele>
        <time>2014-12-07T15:44:50Z</time>
      </trkpt>
      <trkpt lat="44.87533" lon="5.3018">
        <ele>850</ele>
        <time>2014-12-07T15:45:25Z</time>
      </trkpt>
      <trkpt lat="44.87481" lon="5.30172">
        <ele>845</ele>
        <time>2014-12-07T15:46:03Z</time>
      </trkpt>
      <trkpt lat="44.87431" lon="5.30158">
        <ele>832</ele>
        <time>2014-12-07T15:46:42Z</time>
      </trkpt>
      <trkpt lat="44.87383" lon="5.30146">
        <ele>822</ele>
        <time>2014-12-07T15:47:16Z</time>
      </trkpt>
      <trkpt lat="44.87339" lon="5.30122">
        <ele>816</ele>
        <time>2014-12-07T15:47:54Z</time>
      </trkpt>
      <trkpt lat="44.87294" lon="5.30118">
        <ele>810</ele>
        <time>2014-12-07T15:48:28Z</time>
      </trkpt>
      <trkpt lat="44.87244" lon="5.30136">
        <ele>798</ele>
        <time>2014-12-07T15:49:07Z</time>
      </trkpt>
      <trkpt lat="44.87194" lon="5.30137">
        <ele>777</ele>
        <time>2014-12-07T15:49:50Z</time>
      </trkpt>
      <trkpt lat="44.87135" lon="5.30144">
        <ele>762</ele>
        <time>2014-12-07T15:50:36Z</time>
      </trkpt>
      <trkpt lat="44.87079" lon="5.30135">
        <ele>752</ele>
        <time>2014-12-07T15:51:17Z</time>
      </trkpt>
      <trkpt lat="44.87033" lon="5.30109">
        <ele>754</ele>
        <time>2014-12-07T15:51:51Z</time>
      </trkpt>
      <trkpt lat="44.86991" lon="5.30088">
        <ele>756</ele>
        <time>2014-12-07T15:52:25Z</time>
      </trkpt>
      <trkpt lat="44.86945" lon="5.30084">
        <ele>746</ele>
        <time>2014-12-07T15:53:01Z</time>
      </trkpt>
      <trkpt lat="44.86897" lon="5.30086">
        <ele>737</ele>
        <time>2014-12-07T15:53:35Z</time>
      </trkpt>
      <trkpt lat="44.86852" lon="5.30085">
        <ele>728</ele>
        <time>2014-12-07T15:54:13Z</time>
      </trkpt>
      <trkpt lat="44.86808" lon="5.30103">
        <ele>718</ele>
        <time>2014-12-07T15:54:50Z</time>
      </trkpt>
      <trkpt lat="44.86757" lon="5.30105">
        <ele>706</ele>
        <time>2014-12-07T15:55:30Z</time>
      </trkpt>
      <trkpt lat="44.86714" lon="5.30105">
        <ele>696</ele>
        <time>2014-12-07T15:56:05Z</time>
      </trkpt>
      <trkpt lat="44.86665" lon="5.30112">
        <ele>693</ele>
        <time>2014-12-07T15:56:38Z</time>
      </trkpt>
      <trkpt lat="44.86619" lon="5.30098">
        <ele>688</ele>
        <time>2014-12-07T15:57:13Z</time>
      </trkpt>
      <trkpt lat="44.86573" lon="5.30111">
        <ele>688</ele>
        <time>2014-12-07T15:57:54Z</time>
      </trkpt>
      <trkpt lat="44.8653" lon="5.30111">
        <ele>683</ele>
        <time>2014-12-07T15:59:52Z</time>
      </trkpt>
      <trkpt lat="44.86483" lon="5.30102">
        <ele>682</ele>
        <time>2014-12-07T16:00:32Z</time>
      </trkpt>
      <trkpt lat="44.86431" lon="5.30096">
        <ele>678</ele>
        <time>2014-12-07T16:01:14Z</time>
      </trkpt>
      <trkpt lat="44.86382" lon="5.30087">
        <ele>676</ele>
        <time>2014-12-07T16:01:49Z</time>
      </trkpt>
      <trkpt lat="44.86334" lon="5.30083">
        <ele>674</ele>
        <time>2014-12-07T16:02:27Z</time>
      </trkpt>
      <trkpt lat="44.86289" lon="5.30056">
        <ele>674</ele>
        <time>2014-12-07T16:03:14Z</time>
      </trkpt>
      <trkpt lat="44.86242" lon="5.3003">
        <ele>677</ele>
        <time>2014-12-07T16:03:54Z</time>
      </trkpt>
      <trkpt lat="44.8619" lon="5.30025">
        <ele>665</ele>
        <time>2014-12-07T16:04:38Z</time>
      </trkpt>
      <trkpt lat="44.86142" lon="5.30008">
        <ele>655</ele>
        <time>2014-12-07T16:05:19Z</time>
      </trkpt>
      <trkpt lat="44.8609" lon="5.29998">
        <ele>644</ele>
        <time>2014-12-07T16:06:01Z</time>
      </trkpt>
      <trkpt lat="44.86042" lon="5.29993">
        <ele>639</ele>
        <time>2014-12-07T16:06:46Z</time>
      </trkpt>
      <trkpt lat="44.86008" lon="5.29971">
        <ele>620</ele>
        <time>2014-12-07T16:07:48Z</time>
      </trkpt>
      <trkpt lat="44.86038" lon="5.2994">
        <ele>617</ele>
        <time>2014-12-07T16:08:54Z</time>
      </trkpt>
      <trkpt lat="44.86062" lon="5.2989">
        <ele>617</ele>
        <time>2014-12-07T16:09:30Z</time>
      </trkpt>
      <trkpt lat="44.86034" lon="5.29851">
        <ele>619</ele>
        <time>2014-12-07T16:10:06Z</time>
      </trkpt>
      <trkpt lat="44.86037" lon="5.29845">
        <ele>621</ele>
        <time>2014-12-07T16:12:26Z</time>
      </trkpt>
    </trkseg>
  </trk>
</gpx>